createdAt,value
2022-09-10T00:00:29.323Z,51.291286
2022-09-10T00:01:29.278Z,51.291290
2022-09-10T00:02:29.306Z,51.291241
2022-09-10T00:03:29.278Z,51.291294
2022-09-10T00:04:29.260Z,51.291538
2022-09-10T00:05:29.255Z,51.291142
2022-09-10T00:06:29.230Z,51.291172
2022-09-10T00:07:29.216Z,51.291252
2022-09-10T00:08:29.163Z,51.291164
2022-09-10T00:09:29.219Z,51.291210
2022-09-10T00:10:29.200Z,51.291218
2022-09-10T00:11:29.225Z,51.291214
2022-09-10T00:12:29.206Z,51.291210
2022-09-10T00:13:29.173Z,51.291199
2022-09-10T00:14:29.173Z,51.291271
2022-09-10T00:15:29.158Z,51.291191
2022-09-10T00:16:29.164Z,51.291225
2022-09-10T00:17:29.135Z,51.291210
2022-09-10T00:18:29.105Z,51.291180
2022-09-10T00:19:29.150Z,51.291077
2022-09-10T00:20:29.143Z,51.291183
2022-09-10T00:21:29.068Z,51.291191
2022-09-10T00:22:29.108Z,51.291153
2022-09-10T00:23:29.107Z,51.291222
2022-09-10T00:24:29.024Z,51.291080
2022-09-10T00:25:29.156Z,51.291080
2022-09-10T00:26:29.042Z,51.291016
2022-09-10T00:27:29.001Z,51.291214
2022-09-10T00:28:29.030Z,51.291218
2022-09-10T00:29:28.975Z,51.291325
2022-09-10T00:30:28.960Z,51.291126
2022-09-10T00:31:29.049Z,51.291168
2022-09-10T00:32:28.997Z,51.291286
2022-09-10T00:33:28.938Z,51.291344
2022-09-10T00:34:28.976Z,51.290932
2022-09-10T00:35:28.905Z,51.290985
2022-09-10T00:36:28.952Z,51.291180
2022-09-10T00:37:29.026Z,51.291145
2022-09-10T00:38:28.942Z,51.291050
2022-09-10T00:39:28.892Z,51.291012
2022-09-10T00:40:28.866Z,51.291187
2022-09-10T00:41:28.876Z,51.291195
2022-09-10T00:42:28.881Z,51.291164
2022-09-10T00:43:28.857Z,51.291378
2022-09-10T00:44:30.640Z,51.291592
2022-09-10T00:45:28.906Z,51.291267
2022-09-10T00:46:28.881Z,51.291115
2022-09-10T00:47:28.870Z,51.291325
2022-09-10T00:48:28.802Z,51.291245
2022-09-10T00:49:28.823Z,51.291195
2022-09-10T00:50:28.885Z,51.290840
2022-09-10T00:51:28.759Z,51.291336
2022-09-10T00:52:39.674Z,51.291222
2022-09-10T00:53:29.948Z,51.291149
2022-09-10T00:54:28.705Z,51.291019
2022-09-10T00:55:28.731Z,51.291134
2022-09-10T00:56:28.758Z,51.291134
2022-09-10T00:57:28.688Z,51.291264
2022-09-10T00:58:28.759Z,51.291245
2022-09-10T00:59:28.719Z,51.291245
2022-09-10T01:00:28.742Z,51.291183
2022-09-10T01:01:28.692Z,51.291241
2022-09-10T01:02:28.643Z,51.291405
2022-09-10T01:03:28.706Z,51.291409
2022-09-10T01:04:28.753Z,51.291321
2022-09-10T01:05:28.939Z,51.291256
2022-09-10T01:06:28.674Z,51.291149
2022-09-10T01:07:28.651Z,51.291115
2022-09-10T01:08:28.741Z,51.291111
2022-09-10T01:09:28.733Z,51.291218
2022-09-10T01:10:29.162Z,51.291245
2022-09-10T01:11:28.642Z,51.291218
2022-09-10T01:12:30.349Z,51.291180
2022-09-10T01:13:28.655Z,51.291214
2022-09-10T01:14:28.654Z,51.291225
2022-09-10T01:15:28.678Z,51.291271
2022-09-10T01:16:28.733Z,51.291237
2022-09-10T01:17:28.536Z,51.291279
2022-09-10T01:18:28.642Z,51.291229
2022-09-10T01:19:28.533Z,51.291161
2022-09-10T01:20:28.476Z,51.291203
2022-09-10T01:21:28.527Z,51.291153
2022-09-10T01:22:28.606Z,51.291153
2022-09-10T01:23:28.462Z,51.291145
2022-09-10T01:24:28.540Z,51.291100
2022-09-10T01:25:28.486Z,51.291073
2022-09-10T01:26:28.497Z,51.291130
2022-09-10T01:27:28.563Z,51.291111
2022-09-10T01:28:28.722Z,51.291172
2022-09-10T01:29:28.491Z,51.291157
2022-09-10T01:30:28.578Z,51.291122
2022-09-10T01:31:28.579Z,51.291092
2022-09-10T01:32:28.518Z,51.291142
2022-09-10T01:33:28.479Z,51.291142
2022-09-10T01:34:28.394Z,51.291222
2022-09-10T01:35:28.446Z,51.291309
2022-09-10T01:36:28.310Z,51.291191
2022-09-10T01:37:28.290Z,51.291218
2022-09-10T01:38:28.374Z,51.291210
2022-09-10T01:39:28.324Z,51.291233
2022-09-10T01:40:28.376Z,51.291218
2022-09-10T01:41:28.223Z,51.291134
2022-09-10T01:42:28.413Z,51.291245
2022-09-10T01:43:28.284Z,51.291180
2022-09-10T01:44:28.249Z,51.291122
2022-09-10T01:45:28.252Z,51.291218
2022-09-10T01:46:28.244Z,51.291241
2022-09-10T01:47:28.196Z,51.291069
2022-09-10T01:48:28.258Z,51.291164
2022-09-10T01:49:28.168Z,51.291061
2022-09-10T01:50:28.217Z,51.291180
2022-09-10T01:51:28.440Z,51.291187
2022-09-10T01:52:28.124Z,51.291233
2022-09-10T01:53:28.161Z,51.291271
2022-09-10T01:54:28.278Z,51.291206
2022-09-10T01:55:28.177Z,51.291229
2022-09-10T01:56:28.184Z,51.291130
2022-09-10T01:57:28.142Z,51.291145
2022-09-10T01:58:28.069Z,51.291245
2022-09-10T01:59:28.151Z,51.291409
2022-09-10T02:00:28.447Z,51.291393
2022-09-10T02:01:28.196Z,51.291275
2022-09-10T02:02:28.064Z,51.291260
2022-09-10T02:03:28.072Z,51.291317
2022-09-10T02:04:28.173Z,51.291367
2022-09-10T02:05:28.191Z,51.291313
2022-09-10T02:06:28.147Z,51.291264
2022-09-10T02:07:28.082Z,51.291199
2022-09-10T02:08:27.913Z,51.291206
2022-09-10T02:09:28.197Z,51.291225
2022-09-10T02:10:28.023Z,51.291153
2022-09-10T02:11:27.952Z,51.291199
2022-09-10T02:12:27.933Z,51.291161
2022-09-10T02:13:28.009Z,51.291195
2022-09-10T02:14:27.966Z,51.291374
2022-09-10T02:15:28.052Z,51.291454
2022-09-10T02:16:27.914Z,51.291405
2022-09-10T02:17:27.884Z,51.291504
2022-09-10T02:18:27.911Z,51.291500
2022-09-10T02:19:27.737Z,51.291508
2022-09-10T02:20:27.852Z,51.291382
2022-09-10T02:21:27.769Z,51.291363
2022-09-10T02:22:27.812Z,51.291195
2022-09-10T02:23:27.833Z,51.291180
2022-09-10T02:24:27.675Z,51.291119
2022-09-10T02:25:27.663Z,51.290993
2022-09-10T02:26:27.731Z,51.291080
2022-09-10T02:27:27.717Z,51.291241
2022-09-10T02:28:27.734Z,51.291286
2022-09-10T02:29:27.804Z,51.291233
2022-09-10T02:30:27.850Z,51.291355
2022-09-10T02:31:27.915Z,51.291237
2022-09-10T02:32:27.726Z,51.291275
2022-09-10T02:33:27.766Z,51.291378
2022-09-10T02:34:27.693Z,51.291134
2022-09-10T02:35:27.770Z,51.291031
2022-09-10T02:36:27.546Z,51.291119
2022-09-10T02:37:27.623Z,51.291180
2022-09-10T02:38:27.562Z,51.291214
2022-09-10T02:39:27.699Z,51.291191
2022-09-10T02:40:27.746Z,51.291351
2022-09-10T02:41:27.632Z,51.291203
2022-09-10T02:42:27.573Z,51.291157
2022-09-10T02:43:27.545Z,51.291317
2022-09-10T02:44:27.589Z,51.291077
2022-09-10T02:45:27.612Z,51.291191
2022-09-10T02:46:28.208Z,51.291355
2022-09-10T02:47:27.510Z,51.291039
2022-09-10T02:48:27.484Z,51.290974
2022-09-10T02:49:27.465Z,51.291157
2022-09-10T02:50:27.479Z,51.291149
2022-09-10T02:51:27.405Z,51.291286
2022-09-10T02:52:27.418Z,51.291260
2022-09-10T02:53:27.426Z,51.291145
2022-09-10T02:54:27.405Z,51.291119
2022-09-10T02:55:28.128Z,51.291153
2022-09-10T02:56:27.343Z,51.291290
2022-09-10T02:57:27.363Z,51.291523
2022-09-10T02:58:27.319Z,51.291435
2022-09-10T02:59:27.371Z,51.291367
2022-09-10T03:00:27.303Z,51.291290
2022-09-10T03:01:27.445Z,51.291328
2022-09-10T03:02:27.303Z,51.291092
2022-09-10T03:03:27.384Z,51.291344
2022-09-10T03:04:27.322Z,51.291351
2022-09-10T03:05:27.278Z,51.291183
2022-09-10T03:06:27.325Z,51.291092
2022-09-10T03:07:27.332Z,51.291176
2022-09-10T03:08:27.278Z,51.291142
2022-09-10T03:09:27.319Z,51.291080
2022-09-10T03:10:27.249Z,51.291176
2022-09-10T03:11:27.505Z,51.291214
2022-09-10T03:12:27.280Z,51.291161
2022-09-10T03:13:27.164Z,51.291138
2022-09-10T03:14:27.168Z,51.291199
2022-09-10T03:15:27.174Z,51.291241
2022-09-10T03:16:27.211Z,51.291248
2022-09-10T03:17:27.354Z,51.291260
2022-09-10T03:18:27.211Z,51.291203
2022-09-10T03:19:27.114Z,51.291222
2022-09-10T03:20:27.087Z,51.291084
2022-09-10T03:21:27.118Z,51.291153
2022-09-10T03:22:27.048Z,51.291210
2022-09-10T03:23:27.090Z,51.291325
2022-09-10T03:24:27.084Z,51.291130
2022-09-10T03:25:27.076Z,51.291157
2022-09-10T03:26:27.060Z,51.291298
2022-09-10T03:27:27.035Z,51.291256
2022-09-10T03:28:27.025Z,51.291470
2022-09-10T03:29:26.993Z,51.291084
2022-09-10T03:30:27.067Z,51.290916
2022-09-10T03:31:27.217Z,51.291267
2022-09-10T03:32:27.107Z,51.291214
2022-09-10T03:33:27.028Z,51.291157
2022-09-10T03:34:27.067Z,51.290890
2022-09-10T03:35:26.965Z,51.291367
2022-09-10T03:36:27.121Z,51.291458
2022-09-10T03:37:27.148Z,51.291519
2022-09-10T03:38:27.054Z,51.290981
2022-09-10T03:39:27.031Z,51.290874
2022-09-10T03:40:26.956Z,51.290874
2022-09-10T03:41:27.003Z,51.290874
2022-09-10T03:42:26.983Z,51.290874
2022-09-10T03:43:26.890Z,51.290874
2022-09-10T03:44:26.888Z,51.290874
2022-09-10T03:45:26.826Z,51.290874
2022-09-10T03:46:26.759Z,51.290874
2022-09-10T03:47:26.830Z,51.290874
2022-09-10T03:48:26.909Z,51.290874
2022-09-10T03:49:26.790Z,51.290874
2022-09-10T03:50:26.773Z,51.290874
2022-09-10T03:51:26.769Z,51.290874
2022-09-10T03:52:26.742Z,51.290874
2022-09-10T03:53:26.842Z,51.290874
2022-09-10T03:54:26.888Z,51.290874
2022-09-10T03:55:26.698Z,51.290874
2022-09-10T03:56:26.703Z,51.290874
2022-09-10T03:57:26.738Z,51.290874
2022-09-10T03:58:26.811Z,51.290874
2022-09-10T03:59:26.676Z,51.290874
2022-09-10T04:00:26.634Z,51.290874
2022-09-10T04:01:26.691Z,51.290874
2022-09-10T04:02:26.721Z,51.291241
2022-09-10T04:03:26.658Z,51.291153
2022-09-10T04:04:26.676Z,51.291172
2022-09-10T04:05:26.627Z,51.291199
2022-09-10T04:06:26.679Z,51.291126
2022-09-10T04:07:26.516Z,51.291264
2022-09-10T04:08:26.611Z,51.291229
2022-09-10T04:09:26.600Z,51.291241
2022-09-10T04:10:26.615Z,51.291191
2022-09-10T04:11:26.537Z,51.291199
2022-09-10T04:12:26.505Z,51.291145
2022-09-10T04:13:26.515Z,51.291214
2022-09-10T04:14:26.573Z,51.291317
2022-09-10T04:15:26.599Z,51.291317
2022-09-10T04:16:26.546Z,51.291317
2022-09-10T04:17:26.595Z,51.291286
2022-09-10T04:18:26.447Z,51.291172
2022-09-10T04:19:27.669Z,51.291195
2022-09-10T04:20:26.679Z,51.291210
2022-09-10T04:21:26.649Z,51.291130
2022-09-10T04:22:26.463Z,51.291103
2022-09-10T04:23:26.476Z,51.291103
2022-09-10T04:24:26.433Z,51.291187
2022-09-10T04:25:26.559Z,51.291233
2022-09-10T04:26:26.549Z,51.291279
2022-09-10T04:27:26.388Z,51.291267
2022-09-10T04:28:26.460Z,51.291203
2022-09-10T04:29:26.421Z,51.291222
2022-09-10T04:30:26.444Z,51.291237
2022-09-10T04:31:26.554Z,51.291199
2022-09-10T04:32:26.399Z,51.291168
2022-09-10T04:33:26.295Z,51.291225
2022-09-10T04:34:26.372Z,51.291237
2022-09-10T04:35:26.389Z,51.291241
2022-09-10T04:36:26.368Z,51.291237
2022-09-10T04:37:26.472Z,51.291225
2022-09-10T04:38:26.340Z,51.291225
2022-09-10T04:39:26.236Z,51.291199
2022-09-10T04:40:26.306Z,51.291256
2022-09-10T04:41:26.164Z,51.291245
2022-09-10T04:42:26.204Z,51.291164
2022-09-10T04:43:26.521Z,51.291214
2022-09-10T04:44:26.141Z,51.291275
2022-09-10T04:45:26.532Z,51.291271
2022-09-10T04:46:26.211Z,51.291283
2022-09-10T04:47:26.331Z,51.291256
2022-09-10T04:48:26.182Z,51.291183
2022-09-10T04:49:26.194Z,51.291164
2022-09-10T04:50:26.146Z,51.291206
2022-09-10T04:51:26.092Z,51.291294
2022-09-10T04:52:26.069Z,51.291275
2022-09-10T04:53:26.211Z,51.291203
2022-09-10T04:54:26.559Z,51.291210
2022-09-10T04:55:26.024Z,51.291168
2022-09-10T04:56:25.978Z,51.291126
2022-09-10T06:15:35.282Z,51.295727
2022-09-10T06:16:35.337Z,51.295727
2022-09-10T06:17:35.270Z,51.295727
2022-09-10T06:18:35.329Z,51.295540
2022-09-10T06:19:35.263Z,51.295792
2022-09-10T06:20:35.272Z,51.295792
2022-09-10T06:21:35.202Z,51.295792
2022-09-10T06:22:35.201Z,51.295704
2022-09-10T06:23:35.164Z,51.291210
2022-09-10T06:24:35.182Z,51.291264
2022-09-10T06:25:35.204Z,51.291054
2022-09-10T06:26:35.138Z,51.291176
2022-09-10T06:27:35.181Z,51.291256
2022-09-10T06:28:35.181Z,51.291111
2022-09-10T06:29:35.097Z,51.291084
2022-09-10T06:30:35.140Z,51.291008
2022-09-10T06:31:35.134Z,51.290791
2022-09-10T06:32:35.110Z,51.291237
2022-09-10T06:33:35.062Z,51.291286
2022-09-10T06:34:35.057Z,51.291271
2022-09-10T06:35:35.049Z,51.291191
2022-09-10T06:36:35.042Z,51.291267
2022-09-10T06:37:35.012Z,51.291290
2022-09-10T06:38:35.079Z,51.291233
2022-09-10T06:39:35.042Z,51.291248
2022-09-10T06:40:34.997Z,51.291245
2022-09-10T06:41:34.987Z,51.291260
2022-09-10T06:42:34.974Z,51.291309
2022-09-10T06:43:35.021Z,51.291233
2022-09-10T06:44:34.968Z,51.291237
2022-09-10T06:45:34.974Z,51.291210
2022-09-10T06:47:15.987Z,51.291222
2022-09-10T06:48:32.356Z,51.291267
2022-09-10T06:48:39.552Z,51.291313
2022-09-10T06:49:35.880Z,51.291233
2022-09-10T06:50:34.880Z,51.291157
2022-09-10T06:51:34.882Z,51.291210
2022-09-10T06:52:34.839Z,51.291172
2022-09-10T06:53:34.882Z,51.291122
2022-09-10T06:54:34.803Z,51.291096
2022-09-10T06:55:34.801Z,51.291187
2022-09-10T06:56:35.168Z,51.291203
2022-09-10T06:57:35.130Z,51.291206
2022-09-10T06:58:34.834Z,51.291325
2022-09-10T06:59:34.930Z,51.291271
2022-09-10T07:00:34.764Z,51.291302
2022-09-10T07:01:34.764Z,51.291264
2022-09-10T07:02:34.782Z,51.291172
2022-09-10T07:03:34.720Z,51.291092
2022-09-10T07:04:34.768Z,51.291000
2022-09-10T07:05:35.020Z,51.291019
2022-09-10T07:06:34.758Z,51.290966
2022-09-10T07:07:34.732Z,51.291210
2022-09-10T07:08:34.697Z,51.291229
2022-09-10T07:09:34.681Z,51.291275
2022-09-10T07:10:34.668Z,51.291206
2022-09-10T07:11:38.044Z,51.291206
2022-09-10T07:12:34.685Z,51.291203
2022-09-10T07:13:34.622Z,51.291233
2022-09-10T07:14:34.600Z,51.291180
2022-09-10T07:15:34.654Z,51.291008
2022-09-10T07:16:34.598Z,51.291157
2022-09-10T07:17:34.577Z,51.291382
2022-09-10T07:18:34.620Z,51.291393
2022-09-10T07:19:34.561Z,51.291405
2022-09-10T07:20:34.548Z,51.291336
2022-09-10T07:21:34.511Z,51.291264
2022-09-10T07:22:34.542Z,51.291161
2022-09-10T07:23:34.522Z,51.291073
2022-09-10T07:24:34.488Z,51.291145
2022-09-10T07:25:34.476Z,51.291309
2022-09-10T07:26:34.491Z,51.291279
2022-09-10T07:27:34.462Z,51.291359
2022-09-10T07:28:34.457Z,51.291157
2022-09-10T07:29:34.470Z,51.291183
2022-09-10T07:30:34.413Z,51.291241
2022-09-10T07:31:34.409Z,51.291309
2022-09-10T07:32:34.475Z,51.291119
2022-09-10T07:33:34.397Z,51.291130
2022-09-10T07:34:34.378Z,51.291176
2022-09-10T07:35:34.529Z,51.291130
2022-09-10T07:36:34.422Z,51.291008
2022-09-10T07:37:34.350Z,51.290966
2022-09-10T07:38:34.367Z,51.291069
2022-09-10T07:39:34.360Z,51.291218
2022-09-10T07:40:34.380Z,51.291176
2022-09-10T07:41:34.311Z,51.291176
2022-09-10T07:42:34.324Z,51.291252
2022-09-10T07:43:34.364Z,51.291161
2022-09-10T07:44:34.292Z,51.291260
2022-09-10T07:45:34.291Z,51.291328
2022-09-10T07:46:34.273Z,51.291096
2022-09-10T07:47:34.283Z,51.291092
2022-09-10T07:48:34.281Z,51.291142
2022-09-10T07:49:34.267Z,51.291222
2022-09-10T07:50:34.204Z,51.290920
2022-09-10T07:51:34.874Z,51.291000
2022-09-10T07:52:34.235Z,51.291157
2022-09-10T07:53:34.195Z,51.291206
2022-09-10T07:54:34.174Z,51.291191
2022-09-10T07:55:35.203Z,51.291237
2022-09-10T07:56:34.130Z,51.291138
2022-09-10T07:57:34.164Z,51.291111
2022-09-10T07:58:34.136Z,51.291153
2022-09-10T07:59:34.119Z,51.291229
2022-09-10T08:00:34.682Z,51.291260
2022-09-10T08:01:34.129Z,51.291210
2022-09-10T08:02:34.121Z,51.291149
2022-09-10T08:03:34.077Z,51.291145
2022-09-10T08:04:36.971Z,51.291157
2022-09-10T08:05:34.040Z,51.291157
2022-09-10T08:06:35.053Z,51.291157
2022-09-10T08:07:34.016Z,51.291260
2022-09-10T08:08:34.045Z,51.291306
2022-09-10T08:09:34.039Z,51.291164
2022-09-10T08:10:33.982Z,51.291107
2022-09-10T08:11:33.995Z,51.291195
2022-09-10T08:12:33.970Z,51.291222
2022-09-10T08:13:33.995Z,51.291271
2022-09-10T08:14:33.966Z,51.291176
2022-09-10T08:15:33.964Z,51.291199
2022-09-10T08:16:33.943Z,51.291157
2022-09-10T08:17:33.933Z,51.291199
2022-09-10T08:18:33.939Z,51.291142
2022-09-10T08:19:33.911Z,51.291164
2022-09-10T08:20:33.883Z,51.291103
2022-09-10T08:21:33.896Z,51.291149
2022-09-10T08:22:33.897Z,51.291225
2022-09-10T08:23:33.892Z,51.291214
2022-09-10T08:24:33.861Z,51.291241
2022-09-10T08:25:33.844Z,51.291134
2022-09-10T08:26:33.857Z,51.291077
2022-09-10T08:27:33.830Z,51.291210
2022-09-10T08:28:33.800Z,51.291241
2022-09-10T08:29:33.837Z,51.291264
2022-09-10T08:30:33.769Z,51.291279
2022-09-10T08:31:33.767Z,51.291267
2022-09-10T08:32:33.773Z,51.291248
2022-09-10T08:33:33.734Z,51.291531
2022-09-10T08:34:33.726Z,51.291660
2022-09-10T08:35:33.768Z,51.291531
2022-09-10T08:36:33.721Z,51.291264
2022-09-10T08:37:33.692Z,51.291191
2022-09-10T08:38:33.684Z,51.291176
2022-09-10T08:39:33.757Z,51.291191
2022-09-10T08:40:33.669Z,51.291248
2022-09-10T08:41:33.645Z,51.291142
2022-09-10T08:42:33.627Z,51.291153
2022-09-10T08:43:33.642Z,51.291233
2022-09-10T08:44:33.642Z,51.291180
2022-09-10T08:45:33.679Z,51.291126
2022-09-10T08:46:33.635Z,51.291115
2022-09-10T08:47:33.595Z,51.291134
2022-09-10T08:48:33.855Z,51.291328
2022-09-10T08:49:33.564Z,51.291275
2022-09-10T08:50:33.550Z,51.291164
2022-09-10T08:51:33.546Z,51.291225
2022-09-10T08:52:33.535Z,51.291256
2022-09-10T08:53:33.521Z,51.291126
2022-09-10T08:54:33.507Z,51.291248
2022-09-10T08:55:33.514Z,51.291306
2022-09-10T08:56:33.488Z,51.291191
2022-09-10T08:57:33.472Z,51.291000
2022-09-10T08:58:33.453Z,51.291107
2022-09-10T08:59:33.475Z,51.291126
2022-09-10T09:00:33.452Z,51.291191
2022-09-10T09:01:33.472Z,51.291077
2022-09-10T09:02:48.266Z,51.291008
2022-09-10T09:03:33.401Z,51.291611
2022-09-10T09:04:33.405Z,51.291344
2022-09-10T09:05:33.424Z,51.291401
2022-09-10T09:06:33.374Z,51.291161
2022-09-10T09:07:33.501Z,51.291306
2022-09-10T09:08:33.358Z,51.291286
2022-09-10T09:09:33.333Z,51.291187
2022-09-10T09:10:33.377Z,51.291264
2022-09-10T09:11:33.321Z,51.291374
2022-09-10T09:12:33.318Z,51.291302
2022-09-10T09:13:33.289Z,51.291222
2022-09-10T09:14:33.289Z,51.291111
2022-09-10T09:15:33.315Z,51.291183
2022-09-10T09:16:33.315Z,51.291172
2022-09-10T09:17:33.254Z,51.291164
2022-09-10T09:18:33.245Z,51.291294
2022-09-10T09:19:33.236Z,51.291336
2022-09-10T09:20:33.210Z,51.291237
2022-09-10T09:21:33.253Z,51.291248
2022-09-10T09:22:36.932Z,51.291203
2022-09-10T09:23:33.192Z,51.291191
2022-09-10T09:24:33.195Z,51.291218
2022-09-10T09:25:33.178Z,51.291187
2022-09-10T09:26:33.160Z,51.291245
2022-09-10T09:27:33.182Z,51.291267
2022-09-10T09:28:33.131Z,51.291260
2022-09-10T09:29:33.142Z,51.291283
2022-09-10T09:30:33.105Z,51.291191
2022-09-10T09:31:33.135Z,51.291172
2022-09-10T09:32:33.135Z,51.291164
2022-09-10T09:33:33.097Z,51.291092
2022-09-10T09:34:33.082Z,51.291012
2022-09-10T09:35:33.069Z,51.291176
2022-09-10T09:36:33.064Z,51.291496
2022-09-10T09:37:33.040Z,51.291332
2022-09-10T09:38:33.045Z,51.291229
2022-09-10T09:39:33.107Z,51.291161
2022-09-10T09:40:33.018Z,51.291332
2022-09-10T09:41:33.003Z,51.291252
2022-09-10T09:42:33.035Z,51.291317
2022-09-10T09:43:33.005Z,51.291435
2022-09-10T09:44:32.969Z,51.291302
2022-09-10T09:45:33.001Z,51.291241
2022-09-10T09:46:32.960Z,51.291309
2022-09-10T09:47:32.952Z,51.291214
2022-09-10T09:48:32.962Z,51.291199
2022-09-10T09:49:32.923Z,51.291107
2022-09-10T09:50:33.023Z,51.291210
2022-09-10T09:51:32.915Z,51.291035
2022-09-10T09:52:32.892Z,51.291035
2022-09-10T09:53:32.922Z,51.291035
2022-09-10T09:55:09.957Z,51.291008
2022-09-10T09:55:34.871Z,51.291191
2022-09-10T09:56:32.867Z,51.291092
2022-09-10T09:57:32.846Z,51.291092
2022-09-10T09:58:32.830Z,51.291027
2022-09-10T09:59:32.856Z,51.290916
2022-09-10T10:00:32.796Z,51.290958
2022-09-10T10:01:32.824Z,51.290924
2022-09-10T10:02:32.803Z,51.291046
2022-09-10T10:03:32.810Z,51.291187
2022-09-10T10:04:32.784Z,51.291187
2022-09-10T10:05:32.768Z,51.291203
2022-09-10T10:06:32.753Z,51.291264
2022-09-10T10:07:32.743Z,51.291306
2022-09-10T10:08:32.847Z,51.291199
2022-09-10T10:09:32.718Z,51.291191
2022-09-10T10:10:32.719Z,51.291180
2022-09-10T10:11:32.700Z,51.291183
2022-09-10T10:12:32.676Z,51.291183
2022-09-10T10:13:32.686Z,51.291206
2022-09-10T10:14:32.709Z,51.291161
2022-09-10T10:15:32.696Z,51.291157
2022-09-10T10:16:32.657Z,51.290890
2022-09-10T10:17:32.642Z,51.291439
2022-09-10T10:18:32.655Z,51.292160
2022-09-10T10:19:32.652Z,51.292088
2022-09-10T10:20:32.638Z,51.292088
2022-09-10T10:21:32.604Z,51.292088
2022-09-10T10:22:32.594Z,51.292088
2022-09-10T10:23:32.577Z,51.292088
2022-09-10T10:24:32.580Z,51.291935
2022-09-10T10:25:32.591Z,51.291298
2022-09-10T10:26:32.540Z,51.291096
2022-09-10T10:27:32.541Z,51.290939
2022-09-10T10:28:32.574Z,51.291199
2022-09-10T10:29:32.522Z,51.291229
2022-09-10T10:30:32.564Z,51.291195
2022-09-10T10:31:32.490Z,51.291183
2022-09-10T10:32:32.480Z,51.291206
2022-09-10T10:33:32.472Z,51.291267
2022-09-10T10:34:32.453Z,51.291183
2022-09-10T10:35:32.459Z,51.290997
2022-09-10T10:36:32.546Z,51.291008
2022-09-10T10:37:32.440Z,51.291241
2022-09-10T10:38:32.480Z,51.291328
2022-09-10T10:39:32.410Z,51.291325
2022-09-10T10:40:32.395Z,51.291336
2022-09-10T10:41:32.430Z,51.291180
2022-09-10T10:42:32.373Z,51.291084
2022-09-10T10:43:32.372Z,51.291161
2022-09-10T10:44:32.361Z,51.291012
2022-09-10T10:45:32.650Z,51.291218
2022-09-10T10:46:32.509Z,51.291264
2022-09-10T10:47:32.340Z,51.291279
2022-09-10T10:48:32.358Z,51.291252
2022-09-10T10:49:32.308Z,51.291805
2022-09-10T10:50:32.289Z,51.291210
2022-09-10T10:51:32.290Z,51.291225
2022-09-10T10:52:32.311Z,51.291271
2022-09-10T10:53:32.255Z,51.291336
2022-09-10T10:54:32.494Z,51.291214
2022-09-10T10:55:32.252Z,51.291199
2022-09-10T10:56:32.220Z,51.291286
2022-09-10T10:57:32.261Z,51.291344
2022-09-10T10:58:32.206Z,51.291267
2022-09-10T10:59:32.212Z,51.291267
2022-09-10T11:00:32.188Z,51.291199
2022-09-10T11:01:32.208Z,51.291161
2022-09-10T11:02:32.256Z,51.291336
2022-09-10T11:03:32.211Z,51.291298
2022-09-10T11:04:32.136Z,51.291206
2022-09-10T11:05:32.141Z,51.291210
2022-09-10T11:06:32.136Z,51.291210
2022-09-10T11:07:32.111Z,51.291210
2022-09-10T11:08:32.161Z,51.291111
2022-09-10T11:09:32.083Z,51.291256
2022-09-10T11:10:32.073Z,51.291351
2022-09-10T11:11:32.068Z,51.291298
2022-09-10T11:12:32.055Z,51.291138
2022-09-10T11:13:32.046Z,51.291218
2022-09-10T11:14:32.070Z,51.291325
2022-09-10T11:15:32.041Z,51.291325
2022-09-10T11:16:32.001Z,51.292217
2022-09-10T11:17:31.998Z,51.297081
2022-09-10T11:18:32.986Z,51.296322
2022-09-10T11:19:32.012Z,51.291477
2022-09-10T11:20:31.953Z,51.291233
2022-09-10T11:21:31.942Z,51.291309
2022-09-10T11:22:31.940Z,51.291248
2022-09-10T11:23:31.944Z,51.291183
2022-09-10T11:24:31.915Z,51.291248
2022-09-10T11:25:31.929Z,51.291325
2022-09-10T11:26:31.897Z,51.291206
2022-09-10T11:27:31.883Z,51.291126
2022-09-10T11:28:31.964Z,51.291111
2022-09-10T11:29:31.854Z,51.291306
2022-09-10T11:30:31.857Z,51.291225
2022-09-10T11:31:31.855Z,51.291115
2022-09-10T11:32:31.838Z,51.291103
2022-09-10T11:33:31.817Z,51.291283
2022-09-10T11:34:31.822Z,51.291107
2022-09-10T11:35:31.820Z,51.291203
2022-09-10T11:36:31.790Z,51.291279
2022-09-10T11:37:31.776Z,51.291229
2022-09-10T12:47:17.775Z,51.291405
2022-09-10T12:48:17.649Z,51.291370
2022-09-10T12:49:17.616Z,51.291340
2022-09-10T12:50:17.597Z,51.291199
2022-09-10T12:51:17.570Z,51.291252
2022-09-10T12:52:17.729Z,51.291187
2022-09-10T12:53:17.806Z,51.291157
2022-09-10T12:54:17.560Z,51.291191
2022-09-10T12:55:17.597Z,51.291218
2022-09-10T12:56:18.519Z,51.291309
2022-09-10T12:57:17.515Z,51.291302
2022-09-10T12:58:17.513Z,51.291241
2022-09-10T12:59:17.622Z,51.291199
2022-09-10T13:00:17.549Z,51.291203
2022-09-10T13:01:17.759Z,51.291264
2022-09-10T13:02:17.594Z,51.291264
2022-09-10T13:03:17.455Z,51.291260
2022-09-10T13:04:17.444Z,51.291176
2022-09-10T13:05:17.430Z,51.291183
2022-09-10T13:06:17.427Z,51.290844
2022-09-10T13:07:17.434Z,51.291065
2022-09-10T13:08:17.414Z,51.291111
2022-09-10T13:09:17.407Z,51.291203
2022-09-10T13:10:21.716Z,51.291187
2022-09-10T13:11:17.422Z,51.291210
2022-09-10T13:12:17.472Z,51.291298
2022-09-10T13:13:17.373Z,51.291321
2022-09-10T13:14:17.355Z,51.291210
2022-09-10T13:15:17.352Z,51.291245
2022-09-10T13:16:17.374Z,51.291241
2022-09-10T13:17:17.306Z,51.291286
2022-09-10T13:18:17.307Z,51.291248
2022-09-10T13:19:17.303Z,51.291245
2022-09-10T13:20:17.447Z,51.291115
2022-09-10T13:21:17.336Z,51.291130
2022-09-10T13:22:17.267Z,51.291172
2022-09-10T13:23:17.270Z,51.291222
2022-09-10T13:24:17.234Z,51.291298
2022-09-10T13:25:17.246Z,51.291336
2022-09-10T13:26:17.220Z,51.291229
2022-09-10T13:27:17.242Z,51.291210
2022-09-10T13:28:17.219Z,51.291264
2022-09-10T13:29:17.188Z,51.291187
2022-09-10T13:30:17.175Z,51.291183
2022-09-10T13:31:17.249Z,51.291157
2022-09-10T13:32:17.195Z,51.291142
2022-09-10T13:33:22.139Z,51.291252
2022-09-10T13:34:17.142Z,51.291092
2022-09-10T13:35:17.167Z,51.291138
2022-09-10T13:36:17.133Z,51.291199
2022-09-10T13:37:17.138Z,51.291195
2022-09-10T13:38:17.101Z,51.291191
2022-09-10T13:39:17.094Z,51.291088
2022-09-10T13:40:17.077Z,51.291199
2022-09-10T13:41:17.073Z,51.291241
2022-09-10T13:42:17.064Z,51.291180
2022-09-10T13:43:17.069Z,51.291119
2022-09-10T13:44:17.039Z,51.291115
2022-09-10T13:45:17.064Z,51.291119
2022-09-10T13:46:17.073Z,51.291195
2022-09-10T13:47:16.998Z,51.291168
2022-09-10T13:48:17.032Z,51.291084
2022-09-10T13:49:16.987Z,51.291164
2022-09-10T13:50:16.976Z,51.291298
2022-09-10T13:51:16.977Z,51.291405